createdAt,value
2018-07-21T00:00:26.229Z,80.62
2018-07-21T00:01:26.272Z,80.91
2018-07-21T00:02:26.366Z,81.11
2018-07-21T00:03:26.353Z,81.20
2018-07-21T00:04:26.405Z,81.11
2018-07-21T00:05:26.452Z,80.62
2018-07-21T00:06:26.508Z,81.30
2018-07-21T00:07:26.517Z,81.11
2018-07-21T00:08:26.593Z,81.98
2018-07-21T00:09:26.622Z,81.65
2018-07-21T00:10:26.676Z,81.65
2018-07-21T00:11:26.745Z,81.65
2018-07-21T00:12:26.767Z,82.71
2018-07-21T00:13:26.847Z,83.19
2018-07-21T00:14:26.901Z,82.90
2018-07-21T00:15:26.937Z,83.00
2018-07-21T00:16:26.991Z,83.05
2018-07-21T00:17:27.025Z,83.63
2018-07-21T00:18:27.057Z,83.63
2018-07-21T00:19:27.104Z,84.50
2018-07-21T00:20:27.148Z,84.89
2018-07-21T00:21:27.208Z,84.79
2018-07-21T00:22:27.262Z,84.59
2018-07-21T00:23:27.325Z,85.17
2018-07-21T00:24:27.327Z,85.46
2018-07-21T00:25:27.385Z,85.61
2018-07-21T00:26:27.423Z,85.91
2018-07-21T00:27:27.486Z,85.56
2018-07-21T00:28:27.521Z,85.42
2018-07-21T00:29:27.573Z,84.84
2018-07-21T00:30:27.639Z,85.71
2018-07-21T00:31:27.687Z,85.42
2018-07-21T00:32:27.714Z,85.33
2018-07-21T00:33:27.762Z,86.29
2018-07-21T00:34:27.814Z,85.81
2018-07-21T00:35:27.852Z,85.91
2018-07-21T00:36:27.910Z,85.91
2018-07-21T00:37:27.950Z,85.71
2018-07-21T00:38:27.982Z,85.91
2018-07-21T00:39:28.048Z,86.48
2018-07-21T00:40:28.096Z,86.19
2018-07-21T00:41:28.131Z,86.39
2018-07-21T00:42:28.172Z,86.48
2018-07-21T00:43:28.242Z,86.29
2018-07-21T00:44:28.283Z,86.77
2018-07-21T00:45:28.329Z,87.16
2018-07-21T00:46:28.381Z,87.06
2018-07-21T00:47:28.408Z,87.16
2018-07-21T00:48:28.443Z,87.16
2018-07-21T00:49:28.514Z,86.96
2018-07-21T00:50:28.570Z,87.35
2018-07-21T00:51:28.600Z,87.54
2018-07-21T00:52:28.650Z,87.54
2018-07-21T00:53:28.689Z,87.98
2018-07-21T00:54:28.727Z,87.98
2018-07-21T00:55:28.778Z,87.98
2018-07-21T00:56:28.851Z,88.27
2018-07-21T00:57:28.870Z,88.27
2018-07-21T00:58:28.945Z,88.08
2018-07-21T00:59:28.972Z,87.98
2018-07-21T01:00:29.004Z,88.17
2018-07-21T01:01:29.059Z,87.40
2018-07-21T01:02:29.117Z,87.30
2018-07-21T01:03:29.151Z,87.88
2018-07-21T01:04:29.189Z,88.17
2018-07-21T01:05:29.248Z,88.17
2018-07-21T01:06:29.282Z,87.98
2018-07-21T01:07:29.358Z,88.08
2018-07-21T01:08:29.355Z,87.50
2018-07-21T01:09:29.408Z,87.21
2018-07-21T01:10:29.495Z,87.50
2018-07-21T01:11:29.549Z,87.12
2018-07-21T01:12:29.567Z,86.87
2018-07-21T01:13:29.635Z,86.29
2018-07-21T01:14:29.652Z,86.48
2018-07-21T01:15:29.722Z,86.15
2018-07-21T01:16:29.736Z,86.39
2018-07-21T01:17:29.811Z,86.48
2018-07-21T01:18:29.835Z,86.58
2018-07-21T01:19:29.889Z,86.58
2018-07-21T01:20:29.945Z,85.81
2018-07-21T01:21:30.188Z,85.71
2018-07-21T01:22:30.017Z,85.81
2018-07-21T01:23:30.063Z,86.10
2018-07-21T01:24:30.149Z,85.91
2018-07-21T01:25:30.182Z,85.81
2018-07-21T01:26:30.234Z,86.10
2018-07-21T01:27:30.260Z,86.35
2018-07-21T01:28:30.292Z,86.44
2018-07-21T01:29:30.367Z,85.77
2018-07-21T01:30:30.421Z,86.58
2018-07-21T01:31:30.453Z,86.25
2018-07-21T01:32:30.488Z,86.25
2018-07-21T01:33:30.524Z,86.25
2018-07-21T01:34:30.602Z,86.10
2018-07-21T01:35:30.633Z,86.48
2018-07-21T01:36:30.675Z,86.15
2018-07-21T01:37:30.737Z,86.35
2018-07-21T01:38:30.747Z,86.25
2018-07-21T01:39:30.833Z,86.15
2018-07-21T01:40:30.872Z,86.35
2018-07-21T01:41:30.905Z,86.25
2018-07-21T01:42:31.417Z,86.54
2018-07-21T01:43:31.006Z,86.44
2018-07-21T01:44:31.049Z,86.05
2018-07-21T01:45:31.088Z,86.35
2018-07-21T01:46:31.141Z,85.91
2018-07-21T01:47:31.202Z,85.03
2018-07-21T01:48:31.244Z,85.42
2018-07-21T01:49:31.268Z,84.75
2018-07-21T01:50:31.306Z,84.75
2018-07-21T01:51:31.384Z,84.94
2018-07-21T01:52:31.405Z,84.94
2018-07-21T01:53:31.465Z,84.65
2018-07-21T01:54:31.524Z,85.61
2018-07-21T01:55:31.535Z,85.42
2018-07-21T01:56:31.576Z,84.84
2018-07-21T01:57:31.652Z,84.94
2018-07-21T01:58:31.680Z,84.27
2018-07-21T01:59:31.720Z,84.55
2018-07-21T02:00:31.791Z,84.36
2018-07-21T02:01:31.836Z,84.55
2018-07-21T02:02:31.894Z,84.46
2018-07-21T02:03:31.913Z,84.65
2018-07-21T02:04:31.980Z,84.46
2018-07-21T02:05:32.082Z,84.84
2018-07-21T02:06:32.084Z,84.46
2018-07-21T02:07:32.104Z,84.36
2018-07-21T02:08:32.159Z,84.36
2018-07-21T02:09:32.181Z,84.46
2018-07-21T02:10:32.216Z,84.27
2018-07-21T02:11:32.286Z,84.46
2018-07-21T02:12:32.377Z,84.27
2018-07-21T02:13:32.366Z,84.46
2018-07-21T02:14:32.411Z,84.84
2018-07-21T02:15:32.468Z,85.13
2018-07-21T02:16:32.512Z,85.81
2018-07-21T02:17:32.570Z,85.91
2018-07-21T02:18:32.612Z,85.61
2018-07-21T02:19:32.666Z,85.77
2018-07-21T02:20:32.708Z,86.25
2018-07-21T02:21:32.755Z,86.05
2018-07-21T02:22:32.825Z,86.44
2018-07-21T02:23:32.838Z,86.35
2018-07-21T02:24:32.969Z,86.15
2018-07-21T02:25:32.954Z,86.05
2018-07-21T02:26:32.974Z,86.25
2018-07-21T02:27:33.034Z,86.54
2018-07-21T02:28:33.073Z,86.44
2018-07-21T02:29:33.108Z,86.44
2018-07-21T02:30:33.144Z,86.44
2018-07-21T02:31:33.215Z,86.10
2018-07-21T02:32:33.272Z,86.05
2018-07-21T02:33:33.301Z,85.86
2018-07-21T02:34:33.359Z,85.81
2018-07-21T02:35:33.394Z,85.86
2018-07-21T02:36:33.461Z,86.35
2018-07-21T02:37:33.514Z,86.44
2018-07-21T02:38:33.543Z,86.35
2018-07-21T02:39:33.576Z,86.05
2018-07-21T02:40:33.617Z,86.25
2018-07-21T02:41:33.681Z,86.15
2018-07-21T02:42:33.700Z,86.35
2018-07-21T02:43:33.765Z,86.15
2018-07-21T02:44:33.800Z,87.12
2018-07-21T02:45:33.896Z,86.54
2018-07-21T02:46:33.890Z,87.02
2018-07-21T02:47:33.931Z,87.12
2018-07-21T02:48:33.979Z,87.50
2018-07-21T02:49:34.027Z,87.02
2018-07-21T02:50:34.077Z,87.12
2018-07-21T02:51:34.139Z,87.30
2018-07-21T02:52:34.182Z,87.02
2018-07-21T02:53:34.226Z,87.40
2018-07-21T02:54:34.262Z,87.30
2018-07-21T02:55:34.338Z,87.70
2018-07-21T02:56:34.345Z,87.40
2018-07-21T02:57:34.413Z,87.60
2018-07-21T02:58:34.463Z,87.12
2018-07-21T02:59:34.471Z,87.50
2018-07-21T03:00:34.524Z,88.27
2018-07-21T03:01:34.605Z,87.60
2018-07-21T03:02:34.640Z,87.02
2018-07-21T03:03:34.668Z,87.70
2018-07-21T03:04:34.740Z,87.50
2018-07-21T03:05:34.799Z,87.50
2018-07-21T03:06:34.792Z,87.30
2018-07-21T03:07:34.884Z,88.17
2018-07-21T03:08:34.916Z,88.08
2018-07-21T03:09:34.976Z,87.98
2018-07-21T03:10:35.019Z,87.88
2018-07-21T03:11:35.034Z,87.88
2018-07-21T03:12:35.097Z,87.79
2018-07-21T03:13:35.136Z,87.88
2018-07-21T03:14:35.179Z,87.79
2018-07-21T03:15:35.237Z,88.17
2018-07-21T03:16:35.307Z,88.08
2018-07-21T03:17:35.339Z,87.98
2018-07-21T03:18:35.371Z,87.79
2018-07-21T03:19:35.443Z,87.79
2018-07-21T03:20:35.462Z,88.32
2018-07-21T03:21:35.513Z,88.42
2018-07-21T03:22:35.554Z,88.13
2018-07-21T03:23:35.798Z,88.42
2018-07-21T03:24:35.672Z,88.61
2018-07-21T03:25:35.703Z,88.32
2018-07-21T03:26:35.740Z,88.23
2018-07-21T03:27:35.788Z,88.51
2018-07-21T03:28:35.838Z,88.23
2018-07-21T03:29:35.888Z,88.81
2018-07-21T03:30:35.919Z,88.51
2018-07-21T03:31:35.963Z,89.19
2018-07-21T03:32:36.027Z,89.09
2018-07-21T03:33:36.041Z,88.90
2018-07-21T03:34:36.306Z,88.90
2018-07-21T03:35:36.154Z,89.58
2018-07-21T03:36:36.187Z,89.77
2018-07-21T03:37:36.254Z,89.67
2018-07-21T03:38:36.292Z,90.01
2018-07-21T03:39:36.322Z,89.96
2018-07-21T03:40:36.438Z,90.40
2018-07-21T03:41:36.419Z,90.25
2018-07-21T03:42:36.471Z,90.40
2018-07-21T03:43:36.492Z,90.44
2018-07-21T03:44:36.548Z,90.20
2018-07-21T03:45:36.616Z,90.16
2018-07-21T03:46:36.654Z,90.69
2018-07-21T03:47:36.708Z,90.11
2018-07-21T03:48:36.734Z,90.25
2018-07-21T03:49:36.802Z,90.50
2018-07-21T03:50:36.839Z,90.69
2018-07-21T03:51:36.873Z,90.59
2018-07-21T03:52:36.923Z,90.64
2018-07-21T03:53:36.951Z,91.21
2018-07-21T03:54:36.996Z,90.54
2018-07-21T03:55:37.043Z,90.59
2018-07-21T03:56:37.075Z,91.17
2018-07-21T03:57:37.344Z,90.88
2018-07-21T03:58:37.182Z,90.20
2018-07-21T03:59:37.217Z,90.59
2018-07-21T04:00:37.322Z,90.88
2018-07-21T04:01:37.330Z,91.07
2018-07-21T04:02:37.343Z,90.50
2018-07-21T04:03:37.411Z,90.69
2018-07-21T04:04:37.447Z,90.69
2018-07-21T04:05:37.507Z,90.88
2018-07-21T04:06:37.555Z,90.50
2018-07-21T04:07:37.590Z,90.92
2018-07-21T04:08:37.655Z,90.54
2018-07-21T04:09:37.711Z,90.16
2018-07-21T04:10:37.728Z,90.54
2018-07-21T04:11:37.780Z,90.64
2018-07-21T04:12:37.836Z,90.16
2018-07-21T04:13:37.851Z,90.16
2018-07-21T04:14:37.920Z,90.73
2018-07-21T04:15:37.973Z,90.64
2018-07-21T04:16:37.998Z,90.25
2018-07-21T04:17:38.029Z,90.97
2018-07-21T04:18:38.093Z,91.17
2018-07-21T04:19:38.341Z,91.07
2018-07-21T04:20:38.182Z,91.27
2018-07-21T04:21:38.242Z,91.65
2018-07-21T04:22:38.267Z,91.94
2018-07-21T04:23:38.335Z,92.32
2018-07-21T04:24:38.364Z,92.52
2018-07-21T04:25:38.401Z,92.90
2018-07-21T04:26:38.446Z,92.90
2018-07-21T04:27:38.497Z,92.28
2018-07-21T04:28:38.564Z,92.28
2018-07-21T04:29:38.588Z,92.95
2018-07-21T04:30:38.649Z,92.57
2018-07-21T04:31:38.692Z,92.76
2018-07-21T04:32:38.755Z,93.33
2018-07-21T04:33:38.774Z,93.15
2018-07-21T04:34:38.815Z,93.62
2018-07-21T04:35:38.871Z,93.33
2018-07-21T04:36:38.901Z,93.82
2018-07-21T04:37:38.939Z,93.62
2018-07-21T04:38:38.978Z,94.20
2018-07-21T04:39:39.056Z,93.43
2018-07-21T04:40:39.081Z,94.10
2018-07-21T04:41:39.128Z,94.20
2018-07-21T04:42:39.172Z,94.20
2018-07-21T04:43:39.223Z,94.01
2018-07-21T04:44:39.269Z,94.10
2018-07-21T04:45:39.290Z,94.10
2018-07-21T04:46:39.378Z,93.91
2018-07-21T04:47:39.404Z,93.72
2018-07-21T04:48:39.451Z,93.62
2018-07-21T04:49:39.506Z,93.53
2018-07-21T04:50:39.530Z,94.10
2018-07-21T04:51:39.568Z,94.20
2018-07-21T04:52:39.840Z,94.45
2018-07-21T04:53:39.692Z,94.35
2018-07-21T04:54:39.721Z,94.83
2018-07-21T04:55:39.754Z,94.45
2018-07-21T04:56:39.791Z,95.02
2018-07-21T04:57:39.858Z,95.40
2018-07-21T04:58:39.878Z,95.60
2018-07-21T04:59:39.932Z,96.47
2018-07-21T05:00:40.034Z,96.27
2018-07-21T05:01:40.050Z,96.08
2018-07-21T05:02:40.070Z,96.61
2018-07-21T05:03:40.144Z,96.61
2018-07-21T05:04:40.377Z,96.70
2018-07-21T05:05:40.236Z,97.47
2018-07-21T05:06:40.236Z,97.38
2018-07-21T05:07:40.306Z,97.47
2018-07-21T05:08:40.334Z,97.28
2018-07-21T05:09:40.402Z,97.09
2018-07-21T05:10:40.441Z,96.99
2018-07-21T05:11:40.485Z,96.99
2018-07-21T05:12:40.529Z,97.67
2018-07-21T05:13:40.571Z,97.28
2018-07-21T05:14:40.611Z,97.47
2018-07-21T05:15:40.656Z,97.96
2018-07-21T05:16:40.701Z,97.86
2018-07-21T05:17:40.754Z,98.44
2018-07-21T05:18:40.818Z,98.34
2018-07-21T05:19:40.827Z,98.82
2018-07-21T05:20:40.879Z,99.11
2018-07-21T05:21:40.907Z,99.68
2018-07-21T05:22:41.024Z,99.98
2018-07-21T05:23:41.029Z,99.99
2018-07-21T05:24:41.064Z,99.99
2018-07-21T05:25:41.124Z,99.99
2018-07-21T05:26:41.134Z,99.99
2018-07-21T05:27:41.206Z,99.99
2018-07-21T05:28:41.474Z,99.99
2018-07-21T05:29:41.304Z,99.99
2018-07-21T05:30:41.338Z,99.99
2018-07-21T05:31:41.399Z,99.99
2018-07-21T05:32:41.428Z,99.99
2018-07-21T05:33:41.460Z,99.99
2018-07-21T05:34:41.504Z,99.99
2018-07-21T05:35:41.553Z,99.99
2018-07-21T05:36:41.626Z,99.99
2018-07-21T05:37:41.650Z,99.99
2018-07-21T05:38:41.690Z,99.99
2018-07-21T05:39:41.995Z,99.99
2018-07-21T05:40:41.796Z,99.99
2018-07-21T05:41:41.822Z,99.99
2018-07-21T05:42:41.939Z,99.99
2018-07-21T05:43:41.925Z,99.99
2018-07-21T05:44:41.964Z,99.99
2018-07-21T05:45:42.005Z,99.99
2018-07-21T05:46:42.057Z,99.99
2018-07-21T05:47:42.125Z,99.99
2018-07-21T05:48:42.170Z,99.99
2018-07-21T05:49:42.191Z,99.99
2018-07-21T05:50:42.222Z,99.99
2018-07-21T05:51:42.521Z,99.99
2018-07-21T05:52:42.308Z,99.99
2018-07-21T05:53:42.369Z,99.99
2018-07-21T05:54:42.440Z,99.99
2018-07-21T05:55:42.464Z,99.99
2018-07-21T05:56:42.523Z,99.99
2018-07-21T05:57:42.564Z,99.99
2018-07-21T05:58:42.599Z,99.99
2018-07-21T05:59:42.644Z,99.99
2018-07-21T06:00:42.686Z,99.99
2018-07-21T06:01:42.726Z,99.99
2018-07-21T06:02:42.833Z,99.99
2018-07-21T06:03:43.074Z,99.99
2018-07-21T06:04:42.851Z,99.99
2018-07-21T06:05:42.900Z,99.99
2018-07-21T06:06:42.939Z,99.99
2018-07-21T06:07:43.007Z,99.99
2018-07-21T06:08:43.072Z,99.99
2018-07-21T06:09:43.057Z,99.99
2018-07-21T06:10:43.119Z,99.99
2018-07-21T06:11:43.190Z,99.99
2018-07-21T06:12:43.224Z,99.99
2018-07-21T06:13:43.249Z,99.99
2018-07-21T06:14:43.496Z,99.99
2018-07-21T06:15:43.333Z,99.99
2018-07-21T06:16:43.387Z,99.99
2018-07-21T06:17:43.440Z,99.99
2018-07-21T06:18:43.490Z,99.99
2018-07-21T06:19:43.538Z,99.99
2018-07-21T06:20:43.572Z,99.99
2018-07-21T06:21:43.650Z,99.99
2018-07-21T06:22:43.645Z,99.99
2018-07-21T06:23:43.734Z,99.99
2018-07-21T06:24:43.763Z,99.99
2018-07-21T06:25:43.990Z,99.99
2018-07-21T06:26:43.846Z,99.99
2018-07-21T06:27:43.866Z,99.99
2018-07-21T06:28:43.936Z,99.99
2018-07-21T06:29:43.950Z,99.99
2018-07-21T06:30:44.008Z,99.99
2018-07-21T06:31:44.059Z,99.99
2018-07-21T06:32:44.103Z,99.99
2018-07-21T06:33:44.147Z,99.99
2018-07-21T06:34:44.186Z,99.99
2018-07-21T06:35:44.229Z,99.99
2018-07-21T06:36:44.264Z,99.99
2018-07-21T06:37:44.533Z,99.99
2018-07-21T06:38:44.348Z,99.99
2018-07-21T06:39:44.386Z,99.99
2018-07-21T06:40:44.434Z,99.99
2018-07-21T06:41:44.475Z,99.99
2018-07-21T06:42:44.526Z,99.99
2018-07-21T06:43:44.618Z,99.99
2018-07-21T06:44:44.630Z,99.99
2018-07-21T06:45:44.662Z,99.99
2018-07-21T06:46:44.716Z,99.99
2018-07-21T06:47:44.747Z,99.99
2018-07-21T06:48:44.826Z,99.99
2018-07-21T06:49:44.858Z,99.99
2018-07-21T06:50:44.898Z,99.99
2018-07-21T06:51:44.953Z,99.99
2018-07-21T06:52:45.194Z,99.99
2018-07-21T06:53:45.040Z,99.99
2018-07-21T06:54:45.072Z,99.99
2018-07-21T06:55:45.126Z,99.99
2018-07-21T06:56:45.149Z,99.99
2018-07-21T06:57:45.212Z,99.99
2018-07-21T06:58:45.251Z,99.99
2018-07-21T06:59:45.295Z,99.99
2018-07-21T07:00:45.324Z,99.99
2018-07-21T07:01:45.391Z,99.99
2018-07-21T07:02:45.436Z,99.99
2018-07-21T07:03:45.479Z,99.99
2018-07-21T07:04:45.763Z,99.99
2018-07-21T07:05:45.579Z,99.99
2018-07-21T07:06:45.595Z,99.99
2018-07-21T07:07:45.653Z,99.99
2018-07-21T07:08:45.690Z,99.99
2018-07-21T07:09:45.755Z,99.99
2018-07-21T07:10:45.768Z,99.99
2018-07-21T07:11:45.840Z,99.99
2018-07-21T07:12:45.921Z,99.99
2018-07-21T07:13:45.902Z,99.99
2018-07-21T07:14:45.970Z,99.99
2018-07-21T07:15:45.984Z,99.99
2018-07-21T07:16:46.064Z,99.99
2018-07-21T07:17:46.097Z,99.99
2018-07-21T07:18:46.179Z,99.99
2018-07-21T07:19:46.227Z,99.99
2018-07-21T07:20:46.243Z,99.99
2018-07-21T07:21:46.263Z,99.99
2018-07-21T07:22:46.299Z,99.99
2018-07-21T07:23:46.397Z,99.99
2018-07-21T07:24:46.400Z,99.99
2018-07-21T07:25:46.448Z,99.99
2018-07-21T07:26:46.483Z,99.99
2018-07-21T07:27:46.520Z,99.99
2018-07-21T07:28:46.788Z,99.99
2018-07-21T07:29:46.617Z,99.99
2018-07-21T07:30:46.673Z,99.99
2018-07-21T07:31:46.692Z,99.99
2018-07-21T07:32:46.752Z,99.99
2018-07-21T07:33:46.793Z,99.99
2018-07-21T07:34:46.852Z,99.99
2018-07-21T07:35:46.876Z,99.99
2018-07-21T07:36:46.937Z,99.99
2018-07-21T07:37:46.970Z,99.99
2018-07-21T07:38:47.025Z,99.99
2018-07-21T07:39:47.235Z,99.99
2018-07-21T07:40:47.104Z,99.99
2018-07-21T07:41:47.146Z,99.99
2018-07-21T07:42:47.202Z,99.99
2018-07-21T07:43:47.272Z,99.99
2018-07-21T07:44:47.312Z,99.99
2018-07-21T07:45:47.326Z,99.99
2018-07-21T07:46:47.362Z,99.99
2018-07-21T07:47:47.399Z,99.99
2018-07-21T07:48:47.467Z,99.99
2018-07-21T07:49:47.489Z,99.99
2018-07-21T07:50:47.534Z,99.99
2018-07-21T07:51:47.789Z,99.99
2018-07-21T07:52:47.627Z,99.99
2018-07-21T07:53:47.674Z,99.99
2018-07-21T07:54:47.729Z,99.99
2018-07-21T07:55:47.765Z,99.99
2018-07-21T07:56:47.830Z,99.99
2018-07-21T07:57:47.843Z,99.99
2018-07-21T07:58:47.881Z,99.99
2018-07-21T07:59:47.937Z,99.99
2018-07-21T08:00:47.965Z,99.99
2018-07-21T08:01:48.033Z,99.99
2018-07-21T08:02:48.057Z,99.99
2018-07-21T08:03:48.342Z,99.99
2018-07-21T08:04:48.169Z,99.99
2018-07-21T08:05:48.215Z,99.99
2018-07-21T08:06:48.245Z,99.99
2018-07-21T08:07:48.316Z,99.99
2018-07-21T08:08:48.339Z,99.99
2018-07-21T08:09:48.397Z,99.99
2018-07-21T08:10:48.437Z,99.99
2018-07-21T08:11:48.519Z,99.99
2018-07-21T08:12:48.512Z,99.99
2018-07-21T08:13:48.547Z,99.99
2018-07-21T08:14:48.607Z,99.99
2018-07-21T08:15:48.638Z,99.99
2018-07-21T08:16:48.688Z,99.99
2018-07-21T08:17:48.731Z,99.99
2018-07-21T08:18:48.774Z,99.99
2018-07-21T08:19:49.047Z,99.99
2018-07-21T08:20:48.852Z,99.99
2018-07-21T08:21:48.914Z,99.99
2018-07-21T08:22:48.977Z,99.99
2018-07-21T08:23:48.978Z,99.99
2018-07-21T08:24:49.030Z,99.99
2018-07-21T08:25:49.068Z,99.99
2018-07-21T08:26:49.133Z,99.99
2018-07-21T08:27:49.177Z,99.99
2018-07-21T08:28:49.204Z,99.99
2018-07-21T08:29:49.264Z,99.99
2018-07-21T08:30:49.297Z,99.99
2018-07-21T08:31:49.314Z,99.99
2018-07-21T08:32:49.615Z,99.99
2018-07-21T08:33:49.446Z,99.99
2018-07-21T08:34:49.475Z,99.99
2018-07-21T08:35:49.524Z,99.99
2018-07-21T08:36:49.589Z,99.99
2018-07-21T08:37:49.596Z,99.99
2018-07-21T08:38:49.682Z,99.99
2018-07-21T08:39:49.713Z,99.99
2018-07-21T08:40:49.719Z,99.99
2018-07-21T08:41:49.774Z,99.99
2018-07-21T08:42:49.834Z,99.99
2018-07-21T08:43:49.869Z,99.99
2018-07-21T08:44:49.919Z,99.99
2018-07-21T08:45:49.969Z,99.99
2018-07-21T08:46:50.007Z,99.99
2018-07-21T08:47:50.272Z,99.99
2018-07-21T08:48:50.111Z,99.99
2018-07-21T08:49:50.126Z,99.99
2018-07-21T08:50:50.183Z,99.99
2018-07-21T08:51:50.225Z,99.99
2018-07-21T08:52:50.310Z,99.99
2018-07-21T08:53:50.322Z,99.99
2018-07-21T08:54:50.347Z,99.99
2018-07-21T08:55:50.493Z,99.99
2018-07-21T08:56:50.455Z,99.99
2018-07-21T08:57:50.499Z,99.99
2018-07-21T08:58:50.539Z,99.99
2018-07-21T08:59:50.816Z,99.99
2018-07-21T09:00:50.634Z,99.99
2018-07-21T09:01:50.659Z,99.99
2018-07-21T09:02:50.725Z,99.99
2018-07-21T09:03:50.754Z,99.99
2018-07-21T09:04:50.771Z,99.99
2018-07-21T09:05:50.903Z,99.99
2018-07-21T09:06:50.877Z,99.99
2018-07-21T09:07:50.919Z,99.99
2018-07-21T09:08:50.970Z,99.99
2018-07-21T09:09:50.976Z,99.99
2018-07-21T09:10:51.313Z,99.99
2018-07-21T09:11:51.105Z,99.99
2018-07-21T09:12:51.142Z,99.99
2018-07-21T09:13:51.165Z,99.99
2018-07-21T09:14:51.223Z,99.99
2018-07-21T09:15:51.269Z,99.99
2018-07-21T09:16:51.330Z,99.99
2018-07-21T09:17:51.360Z,99.99
2018-07-21T09:18:51.378Z,99.99
2018-07-21T09:19:51.449Z,99.99
2018-07-21T09:20:51.502Z,99.99
2018-07-21T09:21:51.522Z,99.99
2018-07-21T09:22:51.579Z,99.99
2018-07-21T09:23:51.663Z,99.99
2018-07-21T09:24:51.631Z,99.99
2018-07-21T09:25:51.721Z,99.99
2018-07-21T09:26:51.953Z,99.99
2018-07-21T09:27:51.800Z,99.99
2018-07-21T09:28:51.812Z,99.99
2018-07-21T09:29:51.890Z,99.99
2018-07-21T09:30:51.912Z,99.99
2018-07-21T09:31:51.954Z,99.99
2018-07-21T09:32:52.007Z,99.99
2018-07-21T09:33:52.103Z,99.99
2018-07-21T09:34:52.098Z,99.99
2018-07-21T09:35:52.125Z,99.99
2018-07-21T09:36:52.198Z,99.99
2018-07-21T09:37:52.204Z,99.99
2018-07-21T09:38:52.282Z,99.99
2018-07-21T09:39:52.314Z,99.99
2018-07-21T09:40:52.361Z,99.99
2018-07-21T09:41:52.402Z,99.99
2018-07-21T09:42:52.474Z,99.99
2018-07-21T09:43:52.462Z,99.99
2018-07-21T09:44:52.535Z,99.99
2018-07-21T09:45:52.555Z,99.99
2018-07-21T09:46:52.600Z,99.99
2018-07-21T09:47:52.661Z,99.99
2018-07-21T09:48:52.696Z,99.99
2018-07-21T09:49:52.943Z,99.99
2018-07-21T09:50:52.804Z,99.99
2018-07-21T09:51:52.821Z,99.99
2018-07-21T09:52:52.875Z,99.99
2018-07-21T09:53:52.917Z,99.99
2018-07-21T09:54:52.941Z,99.99
2018-07-21T09:55:53.063Z,99.99
2018-07-21T09:56:53.044Z,99.99
2018-07-21T09:57:53.095Z,99.99
2018-07-21T09:58:53.148Z,99.99
2018-07-21T09:59:53.172Z,99.99
2018-07-21T10:00:53.445Z,99.99
2018-07-21T10:01:53.267Z,99.99
2018-07-21T10:02:53.316Z,99.99
2018-07-21T10:03:53.350Z,99.99
2018-07-21T10:04:53.456Z,99.99
2018-07-21T10:05:53.426Z,99.99
2018-07-21T10:06:53.496Z,99.99
2018-07-21T10:07:53.541Z,99.99
2018-07-21T10:08:53.569Z,99.99
2018-07-21T10:09:53.599Z,99.99
2018-07-21T10:10:53.676Z,99.99
2018-07-21T10:11:53.692Z,99.99
2018-07-21T10:12:53.764Z,99.99
2018-07-21T10:13:53.812Z,99.99
2018-07-21T10:14:53.836Z,99.99
2018-07-21T10:15:53.886Z,99.99
2018-07-21T10:16:53.937Z,99.99
2018-07-21T10:17:53.945Z,99.99
2018-07-21T10:18:54.261Z,99.99
2018-07-21T10:19:54.048Z,99.99
2018-07-21T10:20:54.112Z,99.99
2018-07-21T10:21:54.202Z,99.99
2018-07-21T10:22:54.183Z,99.99
2018-07-21T10:23:54.218Z,99.99
2018-07-21T10:24:54.279Z,99.99
2018-07-21T10:25:54.314Z,99.99
2018-07-21T10:26:54.346Z,99.99
2018-07-21T10:27:54.390Z,99.99
2018-07-21T10:28:54.508Z,99.99
2018-07-21T10:29:54.676Z,99.99
2018-07-21T10:30:54.540Z,99.99
2018-07-21T10:31:54.588Z,99.99
2018-07-21T10:32:54.635Z,99.99
2018-07-21T10:33:54.707Z,99.99
2018-07-21T10:34:54.735Z,99.99
2018-07-21T10:35:54.779Z,99.99
2018-07-21T10:36:54.855Z,99.99
2018-07-21T10:37:54.844Z,99.99
2018-07-21T10:38:54.887Z,99.99
2018-07-21T10:39:54.947Z,99.99
2018-07-21T10:40:55.006Z,99.99
2018-07-21T10:41:55.032Z,99.99
2018-07-21T10:42:55.076Z,99.30
2018-07-21T10:43:55.181Z,99.06
2018-07-21T10:44:55.165Z,97.47
2018-07-21T10:45:55.265Z,94.97
2018-07-21T10:46:55.278Z,94.29
2018-07-21T10:47:55.348Z,94.10
2018-07-21T10:48:55.332Z,93.66
2018-07-21T10:49:55.378Z,93.52
2018-07-21T10:50:55.451Z,92.70
2018-07-21T10:51:55.511Z,91.20
2018-07-21T10:52:55.537Z,90.23
2018-07-21T10:53:55.601Z,89.22
2018-07-21T10:54:55.646Z,88.79
2018-07-21T10:55:55.692Z,88.69
2018-07-21T10:56:55.901Z,89.27
2018-07-21T10:57:55.789Z,89.61
2018-07-21T10:58:55.835Z,88.83
2018-07-21T10:59:55.883Z,88.54
2018-07-21T11:00:55.897Z,88.20
2018-07-21T11:01:55.987Z,88.87
2018-07-21T11:02:56.056Z,87.85
2018-07-21T11:03:56.041Z,86.65
2018-07-21T11:04:56.118Z,85.77
2018-07-21T11:05:56.170Z,84.84
2018-07-21T11:06:56.188Z,83.98
2018-07-21T11:07:56.248Z,83.53
2018-07-21T11:08:56.290Z,82.28
2018-07-21T11:09:56.357Z,82.03
2018-07-21T11:10:56.387Z,81.05
2018-07-21T11:11:56.471Z,80.32
2018-07-21T11:12:56.530Z,80.32
2018-07-21T11:13:56.596Z,79.64
2018-07-21T11:14:56.581Z,78.97
2018-07-21T11:15:56.665Z,78.97
2018-07-21T11:16:56.692Z,78.19
2018-07-21T11:17:56.743Z,78.48
2018-07-21T11:18:56.800Z,78.23
2018-07-21T11:19:56.849Z,77.55
2018-07-21T11:20:56.916Z,77.94
2018-07-21T11:21:56.974Z,77.59
2018-07-21T11:22:56.979Z,75.88
2018-07-21T11:23:57.044Z,75.59
2018-07-21T11:24:57.089Z,75.24
2018-07-21T11:25:57.148Z,75.24
2018-07-21T11:26:57.186Z,76.21
2018-07-21T11:27:57.217Z,74.91
2018-07-21T11:28:57.301Z,75.14
2018-07-21T11:29:57.383Z,74.95
2018-07-21T11:30:57.377Z,74.46
2018-07-21T11:31:57.462Z,75.24
2018-07-21T11:32:57.535Z,75.59
2018-07-21T11:33:57.573Z,76.62
2018-07-21T11:34:57.624Z,77.29
2018-07-21T11:35:57.938Z,78.61
2018-07-21T11:36:57.696Z,78.58
2018-07-21T11:37:57.762Z,79.84
2018-07-21T11:38:57.809Z,79.55
2018-07-21T11:39:57.850Z,78.29
2018-07-21T11:40:57.907Z,78.48
2018-07-21T11:41:57.985Z,78.87
2018-07-21T11:42:57.997Z,79.06
2018-07-21T11:43:58.049Z,77.45
2018-07-21T11:44:58.116Z,77.16
2018-07-21T11:45:58.188Z,77.29
2018-07-21T11:46:58.466Z,76.91
2018-07-21T11:47:58.232Z,75.30
2018-07-21T11:48:58.311Z,74.91
2018-07-21T11:49:58.368Z,75.10
2018-07-21T11:50:58.430Z,74.71
2018-07-21T11:51:58.472Z,73.55
2018-07-21T11:52:58.495Z,73.97
2018-07-21T11:53:58.579Z,73.58
2018-07-21T11:54:58.631Z,73.88
2018-07-21T11:55:58.653Z,73.68
2018-07-21T11:56:58.766Z,73.52
2018-07-21T11:57:58.797Z,73.33
2018-07-21T11:58:58.853Z,72.65
2018-07-21T11:59:58.909Z,72.07
2018-07-21T12:00:58.944Z,71.78
2018-07-21T12:01:59.064Z,72.07
2018-07-21T12:02:59.043Z,71.72
2018-07-21T12:03:59.074Z,71.50
2018-07-21T12:04:59.121Z,70.91
2018-07-21T12:05:59.197Z,70.17
2018-07-21T12:06:59.292Z,69.00
2018-07-21T12:07:59.282Z,69.48
2018-07-21T12:08:59.367Z,69.39
2018-07-21T12:09:59.411Z,69.48
2018-07-21T12:10:59.450Z,69.55
2018-07-21T12:11:59.501Z,70.13
2018-07-21T12:12:59.580Z,69.48
2018-07-21T12:13:59.610Z,69.32
2018-07-21T12:14:59.672Z,68.74
2018-07-21T12:15:59.722Z,69.65
2018-07-21T12:16:59.780Z,67.74
2018-07-21T12:17:59.801Z,67.15
2018-07-21T12:18:59.901Z,66.37
2018-07-21T12:19:59.913Z,66.08
2018-07-21T12:20:59.981Z,66.99
2018-07-21T12:22:00.038Z,65.43
2018-07-21T12:23:00.109Z,65.14
2018-07-21T12:24:00.153Z,64.58
2018-07-21T12:25:00.190Z,64.68
2018-07-21T12:26:00.277Z,65.56
2018-07-21T12:27:00.310Z,65.04
2018-07-21T12:28:00.391Z,65.46
2018-07-21T12:29:00.409Z,63.96
2018-07-21T12:30:00.463Z,64.39
2018-07-21T12:31:00.536Z,65.20
2018-07-21T12:32:00.587Z,64.00
2018-07-21T12:33:00.631Z,62.82
2018-07-21T12:34:00.689Z,62.10
2018-07-21T12:35:00.748Z,60.63
2018-07-21T12:36:00.809Z,60.57
2018-07-21T12:37:00.879Z,61.64
2018-07-21T12:38:00.973Z,61.41
2018-07-21T12:39:00.977Z,61.29
2018-07-21T12:40:01.058Z,60.70
2018-07-21T12:41:01.090Z,60.73
2018-07-21T12:42:01.154Z,60.83
2018-07-21T12:43:01.211Z,60.57
2018-07-21T12:44:01.259Z,59.46
2018-07-21T12:45:01.308Z,60.41
2018-07-21T12:46:01.375Z,60.89
2018-07-21T12:47:01.415Z,60.57
2018-07-21T12:48:01.476Z,60.77
2018-07-21T12:49:01.771Z,61.33
2018-07-21T12:50:01.593Z,61.82
2018-07-21T12:51:01.651Z,62.82
2018-07-21T12:52:01.708Z,61.80
2018-07-21T12:53:01.785Z,60.66